Main page
METAR-TAF:

METAR-TAF

Airports :

Kushok Bakula Rimpochee Airport

Leh, India

latitude: 34-08-09N, longitude: 077-32-47E, elevation: 3256 m

METAR: missing

Time: 02:58 (21:28 UTC)

Forecast

The report was made 11 hours and 58 minutes ago, at 09:30 UTC
Forecast valid from 05 at 18 UTC to 06 at 12 UTC
Wind 15 kt from the West
Visibility: 6000 m
Scattered clouds at a height of 6000 ft
Broken clouds at a height of 10000 ft
Temporary
from 05 at 20 UTC to 05 at 22 UTC
Few clouds at a height of 5000 ft, Cumulonimbus.
Scattered clouds at a height of 6000 ft
Broken clouds at a height of 10000 ft
Becoming
from 06 at 10 UTC to 06 at 12 UTC
Wind 20 kt from the West with gusts up to 30 kt
Visibility: 4000 m
Few clouds at a height of 5000 ft, Cumulonimbus.
Scattered clouds at a height of 6000 ft
Broken clouds at a height of 10000 ft
thunderstorm, rain, widespread dust

TAF: VILH 050930Z 0518/0612 27015KT 6000 SCT060 BKN100 TEMPO 0520/0522 FEW050CB SCT060 BKN100 BECMG 0610/0612 27020G30KT 4000 TSRADU FEW050CB SCT060 BKN100

Weather observations and forecasts of more than 4000 airports (METAR and TAF reports).

The available stations are represented by yellow and red dots on the map.

Hover mouse over dot to see the name of the station.

Then click to see weather observations and forecasts.

To change the map : click on the green buttons with a black cross to zoom in, on the green button with a dash to zoom out, or on the green arrows for adjacent maps.


METAR-TAF: